createdAt,value
2023-04-14T00:00:25.140Z,7.10
2023-04-14T00:03:28.372Z,7.10
2023-04-14T00:06:31.514Z,7.10
2023-04-14T00:09:34.449Z,7.10
2023-04-14T00:12:37.395Z,7.00
2023-04-14T00:15:42.536Z,7.00
2023-04-14T00:18:45.490Z,7.00
2023-04-14T00:21:48.426Z,7.00
2023-04-14T00:24:51.357Z,7.00
2023-04-14T00:27:54.479Z,7.00
2023-04-14T00:30:58.802Z,7.00
2023-04-14T00:34:01.943Z,7.00
2023-04-14T00:37:04.945Z,7.00
2023-04-14T00:40:10.883Z,6.90
2023-04-14T00:43:13.836Z,6.90
2023-04-14T00:46:18.915Z,6.90
2023-04-14T00:49:22.130Z,6.90
2023-04-14T00:52:26.276Z,6.90
2023-04-14T00:55:30.363Z,6.80
2023-04-14T00:58:33.436Z,6.70
2023-04-14T01:01:38.162Z,6.70
2023-04-14T01:04:53.035Z,6.70
2023-04-14T01:07:57.117Z,6.70
2023-04-14T01:11:09.689Z,6.70
2023-04-14T01:14:19.251Z,6.60
2023-04-14T01:17:33.257Z,6.50
2023-04-14T01:20:42.275Z,6.50
2023-04-14T01:24:01.053Z,6.40
2023-04-14T01:27:10.213Z,6.40
2023-04-14T01:30:36.711Z,6.40
2023-04-14T01:33:44.530Z,6.30
2023-04-14T01:36:53.943Z,6.30
2023-04-14T01:40:01.561Z,6.30
2023-04-14T01:43:11.428Z,6.30
2023-04-14T01:46:18.070Z,6.30
2023-04-14T01:49:24.282Z,6.20
2023-04-14T01:52:28.358Z,6.20
2023-04-14T01:55:33.320Z,6.10
2023-04-14T01:58:38.088Z,6.10
2023-04-14T02:01:42.287Z,6.10
2023-04-14T02:04:47.906Z,6.20
2023-04-14T02:07:55.693Z,6.20
2023-04-14T02:11:00.360Z,6.10
2023-04-14T02:14:05.141Z,6.10
2023-04-14T02:17:10.292Z,6.00
2023-04-14T02:20:15.713Z,6.00
2023-04-14T02:23:19.000Z,6.00
2023-04-14T02:26:24.809Z,6.00
2023-04-14T02:29:29.574Z,6.00
2023-04-14T02:32:33.346Z,6.00
2023-04-14T02:35:44.046Z,5.90
2023-04-14T02:38:53.184Z,5.90
2023-04-14T02:42:01.530Z,5.90
2023-04-14T02:45:08.137Z,5.90
2023-04-14T02:48:15.066Z,5.90
2023-04-14T02:51:20.465Z,5.90
2023-04-14T02:54:24.434Z,5.90
2023-04-14T02:57:28.558Z,5.90
2023-04-14T03:00:31.782Z,5.90
2023-04-14T03:03:37.381Z,5.80
2023-04-14T03:06:42.274Z,5.80
2023-04-14T03:09:48.108Z,5.80
2023-04-14T03:12:52.347Z,5.80
2023-04-14T03:15:56.270Z,5.80
2023-04-14T03:19:01.065Z,5.80
2023-04-14T03:22:05.842Z,5.80
2023-04-14T03:25:12.181Z,5.70
2023-04-14T03:28:20.286Z,5.70
2023-04-14T03:31:31.258Z,5.70
2023-04-14T03:34:36.065Z,5.70
2023-04-14T03:37:42.270Z,5.70
2023-04-14T03:40:48.507Z,5.60
2023-04-14T03:43:54.646Z,5.50
2023-04-14T03:46:57.810Z,5.50
2023-04-14T03:50:02.781Z,5.50
2023-04-14T03:53:08.480Z,5.50
2023-04-14T03:56:13.384Z,5.50
2023-04-14T03:59:19.041Z,5.60
2023-04-14T04:02:22.835Z,5.60
2023-04-14T04:05:26.222Z,5.60
2023-04-14T04:08:32.763Z,5.60
2023-04-14T04:11:36.608Z,5.60
2023-04-14T04:14:40.406Z,5.50
2023-04-14T04:17:44.218Z,5.50
2023-04-14T04:20:48.918Z,5.50
2023-04-14T04:23:57.019Z,5.50
2023-04-14T04:27:01.333Z,5.50
2023-04-14T04:30:09.178Z,5.50
2023-04-14T04:33:12.538Z,5.50
2023-04-14T04:36:16.290Z,5.60
2023-04-14T04:39:20.728Z,5.60
2023-04-14T04:42:23.714Z,5.60
2023-04-14T04:45:45.451Z,5.60
2023-04-14T04:48:51.386Z,5.60
2023-04-14T04:51:54.758Z,5.50
2023-04-14T04:54:59.054Z,5.50
2023-04-14T04:58:02.022Z,5.50
2023-04-14T05:01:09.526Z,5.50
2023-04-14T05:04:12.718Z,5.50
2023-04-14T05:07:15.874Z,5.60
2023-04-14T05:10:20.322Z,5.60
2023-04-14T05:13:23.499Z,5.60
2023-04-14T05:16:28.156Z,5.70
2023-04-14T05:19:31.103Z,5.80
2023-04-14T05:22:34.168Z,5.80
2023-04-14T05:25:38.520Z,5.90
2023-04-14T05:28:42.015Z,6.00
2023-04-14T05:31:45.076Z,6.10
2023-04-14T05:34:48.109Z,6.20
2023-04-14T05:37:51.138Z,6.40
2023-04-14T05:40:55.758Z,6.50
2023-04-14T05:43:58.837Z,6.60
2023-04-14T05:47:02.089Z,6.70
2023-04-14T05:50:05.927Z,6.70
2023-04-14T05:53:08.984Z,6.90
2023-04-14T05:56:13.425Z,7.10
2023-04-14T05:59:17.328Z,7.20
2023-04-14T06:02:20.452Z,7.20
2023-04-14T06:05:24.392Z,7.20
2023-04-14T06:08:27.433Z,7.20
2023-04-14T06:11:31.987Z,7.30
2023-04-14T06:14:35.228Z,7.40
2023-04-14T06:17:38.295Z,7.50
2023-04-14T06:20:41.391Z,7.50
2023-04-14T06:23:44.410Z,7.70
2023-04-14T06:26:48.729Z,7.70
2023-04-14T06:29:52.124Z,7.90
2023-04-14T06:32:55.332Z,8.00
2023-04-14T06:35:58.328Z,8.10
2023-04-14T06:39:02.087Z,8.10
2023-04-14T06:42:06.609Z,8.20
2023-04-14T06:45:10.710Z,8.40
2023-04-14T06:48:14.360Z,8.60
2023-04-14T06:51:17.277Z,8.70
2023-04-14T06:54:20.222Z,8.70
2023-04-14T06:57:25.373Z,8.90
2023-04-14T07:00:28.440Z,9.10
2023-04-14T07:03:32.189Z,9.20
2023-04-14T07:06:35.321Z,9.60
2023-04-14T07:09:38.351Z,9.90
2023-04-14T07:12:42.660Z,10.20
2023-04-14T07:15:48.052Z,10.40
2023-04-14T07:18:51.101Z,10.70
2023-04-14T07:21:54.064Z,10.90
2023-04-14T07:24:57.158Z,11.00
2023-04-14T07:28:03.617Z,11.00
2023-04-14T07:31:10.869Z,11.40
2023-04-14T07:34:13.936Z,11.40
2023-04-14T07:37:17.847Z,11.40
2023-04-14T07:40:21.267Z,11.80
2023-04-14T07:43:25.606Z,12.50
2023-04-14T07:46:28.725Z,13.10
2023-04-14T07:49:31.778Z,13.10
2023-04-14T07:52:34.752Z,13.20
2023-04-14T07:55:37.748Z,13.30
2023-04-14T07:58:42.098Z,13.40
2023-04-14T08:01:45.155Z,13.80
2023-04-14T08:04:48.710Z,13.60
2023-04-14T08:07:51.943Z,13.30
2023-04-14T08:10:55.155Z,13.20
2023-04-14T08:13:59.513Z,13.10
2023-04-14T08:17:02.484Z,13.40
2023-04-14T08:20:06.781Z,13.50
2023-04-14T08:23:11.238Z,13.30
2023-04-14T08:26:14.548Z,13.50
2023-04-14T08:29:18.816Z,13.70
2023-04-14T08:32:22.368Z,13.80
2023-04-14T08:35:36.350Z,13.90
2023-04-14T08:38:44.341Z,14.00
2023-04-14T08:41:47.509Z,13.90
2023-04-14T08:44:52.659Z,13.90
2023-04-14T08:47:57.745Z,13.80
2023-04-14T08:51:08.213Z,14.00
2023-04-14T08:54:13.255Z,14.20
2023-04-14T08:57:20.308Z,14.40
2023-04-14T09:00:24.756Z,14.30
2023-04-14T09:03:28.603Z,14.30
2023-04-14T09:06:32.275Z,14.20
2023-04-14T09:09:35.415Z,14.30
2023-04-14T09:12:41.837Z,14.40
2023-04-14T09:15:46.468Z,14.40
2023-04-14T09:18:49.789Z,14.60
2023-04-14T09:21:54.939Z,14.70
2023-04-14T09:24:59.197Z,14.80
2023-04-14T09:28:02.252Z,14.50
2023-04-14T09:31:06.860Z,14.80
2023-04-14T09:34:18.046Z,14.90
2023-04-14T09:37:22.510Z,14.90
2023-04-14T09:40:29.710Z,15.00
2023-04-14T09:43:33.257Z,15.20
2023-04-14T09:46:57.066Z,15.20
2023-04-14T09:50:03.312Z,15.20
2023-04-14T09:53:06.372Z,15.40
2023-04-14T09:56:10.919Z,15.60
2023-04-14T09:59:13.922Z,15.90
2023-04-14T10:02:18.415Z,16.10
2023-04-14T10:05:21.894Z,16.10
2023-04-14T10:08:35.921Z,16.10
2023-04-14T10:11:39.706Z,16.20
2023-04-14T10:14:44.386Z,16.50
2023-04-14T10:17:48.794Z,16.90
2023-04-14T10:20:52.289Z,16.90
2023-04-14T10:23:57.566Z,16.90
2023-04-14T10:27:03.731Z,16.80
2023-04-14T10:30:08.640Z,16.80
2023-04-14T10:33:13.592Z,17.00
2023-04-14T10:36:24.876Z,16.90
2023-04-14T10:39:27.892Z,16.90
2023-04-14T10:42:33.088Z,17.20
2023-04-14T10:45:50.958Z,17.40
2023-04-14T10:48:55.573Z,17.50
2023-04-14T10:52:00.580Z,17.50
2023-04-14T10:55:12.119Z,18.40
2023-04-14T10:58:21.058Z,18.70
2023-04-14T11:01:31.181Z,18.50
2023-04-14T11:04:55.667Z,18.40
2023-04-14T11:08:02.749Z,18.10
2023-04-14T11:11:07.275Z,18.30
2023-04-14T11:14:13.213Z,18.10
2023-04-14T11:17:21.997Z,18.20
2023-04-14T11:20:26.363Z,18.00
2023-04-14T11:23:29.906Z,17.90
2023-04-14T11:26:32.871Z,17.90
2023-04-14T11:29:35.968Z,18.20
2023-04-14T11:32:47.694Z,18.00
2023-04-14T11:35:52.110Z,17.60
2023-04-14T11:38:55.242Z,17.70
2023-04-14T11:42:00.439Z,17.40
2023-04-14T11:45:04.464Z,17.10
2023-04-14T11:48:09.895Z,16.80
2023-04-14T11:51:14.259Z,16.80
2023-04-14T11:54:17.222Z,16.90
2023-04-14T11:57:20.297Z,16.60
2023-04-14T12:00:24.300Z,16.40
2023-04-14T12:03:29.101Z,16.20
2023-04-14T12:06:37.056Z,16.20
2023-04-14T12:09:42.893Z,16.10
2023-04-14T12:12:46.372Z,15.80
2023-04-14T12:15:49.382Z,15.80
2023-04-14T12:18:52.385Z,15.90
2023-04-14T12:21:57.849Z,16.00
2023-04-14T12:25:00.792Z,16.00
2023-04-14T12:28:06.749Z,15.90
2023-04-14T12:31:10.905Z,15.90
2023-04-14T12:34:17.830Z,15.70
2023-04-14T12:37:26.910Z,15.90
2023-04-14T12:40:40.114Z,15.90
2023-04-14T12:43:43.103Z,16.00
2023-04-14T12:46:50.009Z,16.20
2023-04-14T12:49:53.809Z,16.50
2023-04-14T12:52:59.830Z,16.70
2023-04-14T12:56:10.446Z,16.60
2023-04-14T12:59:14.580Z,16.80
2023-04-14T13:02:17.933Z,16.90
2023-04-14T13:05:21.136Z,16.90
2023-04-14T13:08:26.141Z,17.00
2023-04-14T13:11:29.945Z,16.70
2023-04-14T13:14:32.876Z,16.60
2023-04-14T13:17:36.174Z,16.80
2023-04-14T13:20:39.254Z,16.50
2023-04-14T13:23:43.590Z,16.40
2023-04-14T13:26:46.976Z,16.10
2023-04-14T13:29:49.962Z,15.80
2023-04-14T13:32:53.296Z,15.80
2023-04-14T13:35:56.463Z,16.00
2023-04-14T13:39:01.426Z,16.10
2023-04-14T13:42:04.630Z,16.20
2023-04-14T13:45:09.320Z,16.20
2023-04-14T13:48:12.532Z,16.30
2023-04-14T13:51:15.515Z,16.20
2023-04-14T13:54:19.823Z,16.10
2023-04-14T13:57:22.782Z,16.10
2023-04-14T14:00:26.096Z,16.10
2023-04-14T14:03:31.476Z,16.30
2023-04-14T14:06:35.714Z,16.30
2023-04-14T14:09:40.572Z,16.20
2023-04-14T14:12:43.686Z,16.10
2023-04-14T14:15:46.668Z,15.90
2023-04-14T14:18:49.736Z,15.50
2023-04-14T14:21:52.734Z,15.60
2023-04-14T14:25:10.732Z,15.70
2023-04-14T14:28:14.520Z,15.70
2023-04-14T14:31:17.822Z,15.70
2023-04-14T14:34:21.060Z,15.70
2023-04-14T14:37:24.015Z,15.50
2023-04-14T14:40:29.735Z,15.60
2023-04-14T14:43:32.742Z,15.40
2023-04-14T14:46:35.961Z,15.40
2023-04-14T14:49:46.066Z,15.20
2023-04-14T14:52:56.795Z,15.30
2023-04-14T14:56:01.269Z,15.00
2023-04-14T14:59:04.529Z,14.90
2023-04-14T15:02:07.694Z,14.90
2023-04-14T15:05:10.923Z,14.70
2023-04-14T15:08:13.893Z,14.80
2023-04-14T15:11:18.373Z,14.90
2023-04-14T15:14:21.365Z,15.10
2023-04-14T15:17:24.439Z,15.00
2023-04-14T15:20:27.410Z,15.10
2023-04-14T15:23:32.944Z,15.10
2023-04-14T15:26:37.229Z,15.20
2023-04-14T15:29:40.378Z,15.20
2023-04-14T15:32:43.339Z,15.20
2023-04-14T15:35:46.298Z,15.00
2023-04-14T15:38:50.051Z,14.80
2023-04-14T15:41:54.368Z,14.50
2023-04-14T15:44:57.334Z,14.40
2023-04-14T15:48:00.366Z,14.40
2023-04-14T15:51:04.831Z,14.30
2023-04-14T15:54:07.805Z,14.20
2023-04-14T15:57:12.233Z,14.30
2023-04-14T16:00:15.968Z,14.20
2023-04-14T16:03:19.547Z,14.20
2023-04-14T16:06:23.230Z,14.10
2023-04-14T16:09:26.563Z,14.10
2023-04-14T16:12:31.137Z,14.10
2023-04-14T16:15:34.857Z,14.10
2023-04-14T16:18:37.919Z,14.00
2023-04-14T16:21:40.909Z,14.00
2023-04-14T16:24:43.883Z,13.90
2023-04-14T16:27:48.182Z,13.90
2023-04-14T16:30:51.371Z,13.70
2023-04-14T16:33:54.374Z,13.50
2023-04-14T16:36:57.959Z,13.50
2023-04-14T16:40:01.032Z,13.40
2023-04-14T16:43:05.823Z,13.40
2023-04-14T16:46:08.891Z,13.40
2023-04-14T16:49:11.965Z,13.40
2023-04-14T16:52:15.552Z,13.30
2023-04-14T16:55:18.710Z,13.20
2023-04-14T16:58:23.287Z,13.10
2023-04-14T17:01:26.747Z,13.10
2023-04-14T17:04:30.071Z,13.10
2023-04-14T17:07:33.429Z,12.90
2023-04-14T17:10:37.227Z,12.80
2023-04-14T17:13:42.546Z,12.80
2023-04-14T17:16:45.538Z,12.70
2023-04-14T17:19:49.916Z,12.70
2023-04-14T17:22:53.704Z,12.60
2023-04-14T17:25:58.646Z,12.50
2023-04-14T17:29:03.400Z,12.30
2023-04-14T17:32:07.165Z,12.30
2023-04-14T17:35:11.388Z,12.20
2023-04-14T17:38:14.501Z,12.10
2023-04-14T17:41:17.464Z,12.10
2023-04-14T17:44:22.412Z,11.90
2023-04-14T17:47:25.334Z,11.90
2023-04-14T17:50:28.447Z,11.80
2023-04-14T17:53:32.145Z,11.60
2023-04-14T17:56:35.102Z,11.60
2023-04-14T17:59:39.774Z,11.60
2023-04-14T18:02:42.897Z,11.60
2023-04-14T18:05:46.039Z,11.50
2023-04-14T18:08:49.011Z,11.30
2023-04-14T18:11:52.287Z,11.20
2023-04-14T18:14:57.000Z,11.10
2023-04-14T18:18:00.020Z,11.10
2023-04-14T18:21:03.063Z,11.00
2023-04-14T18:30:20.067Z,10.80
2023-04-14T18:33:23.347Z,10.70
2023-04-14T18:36:27.191Z,10.70
2023-04-14T18:39:33.506Z,10.60
2023-04-14T18:42:36.947Z,10.50
2023-04-14T18:45:44.847Z,10.50
2023-04-14T18:48:48.081Z,10.40
2023-04-14T18:51:51.614Z,10.30
2023-04-14T18:54:54.554Z,10.30
2023-04-14T18:57:57.548Z,10.30
2023-04-14T19:01:01.933Z,10.20
2023-04-14T19:04:05.876Z,10.20
2023-04-14T19:07:09.014Z,10.10
2023-04-14T19:10:11.969Z,10.10
2023-04-14T19:13:15.290Z,10.10
2023-04-14T19:16:19.678Z,10.10
2023-04-14T19:19:22.761Z,10.10
2023-04-14T19:22:25.753Z,10.20
2023-04-14T19:25:29.371Z,10.20
2023-04-14T19:28:32.482Z,10.20
2023-04-14T19:31:36.807Z,10.20
2023-04-14T19:34:39.815Z,10.30
2023-04-14T19:37:42.889Z,10.30
2023-04-14T19:40:49.195Z,10.40
2023-04-14T19:43:52.418Z,10.40
2023-04-14T19:46:56.997Z,10.30
2023-04-14T19:50:00.361Z,10.40
2023-04-14T19:53:03.327Z,10.30
2023-04-14T19:56:07.024Z,10.30
2023-04-14T19:59:10.376Z,10.20
2023-04-14T20:02:14.786Z,10.30
2023-04-14T20:05:18.001Z,10.20
2023-04-14T20:08:21.640Z,10.20
2023-04-14T20:11:27.746Z,10.10
2023-04-14T20:14:30.747Z,10.00
2023-04-14T20:17:35.168Z,9.90
2023-04-14T20:20:40.283Z,10.00
2023-04-14T20:23:43.278Z,9.90
2023-04-14T20:26:46.563Z,9.90
2023-04-14T20:29:49.836Z,9.90
2023-04-14T20:32:54.242Z,9.90
2023-04-14T20:35:57.887Z,9.90
2023-04-14T20:39:01.097Z,9.90
2023-04-14T20:42:04.365Z,9.80
2023-04-14T20:45:08.594Z,9.80
2023-04-14T20:48:13.620Z,9.90
2023-04-14T20:51:16.655Z,9.80
2023-04-14T20:54:19.703Z,9.70
2023-04-14T20:57:22.658Z,9.70
2023-04-14T21:00:25.612Z,9.70
2023-04-14T21:03:31.327Z,9.70
2023-04-14T21:06:34.515Z,9.70
2023-04-14T21:09:37.456Z,9.70
2023-04-14T21:12:54.236Z,9.80
2023-04-14T21:16:04.096Z,9.90
2023-04-14T21:19:14.266Z,9.90
2023-04-14T21:22:17.248Z,9.90
2023-04-14T21:25:20.207Z,9.90
2023-04-14T21:28:23.170Z,9.90
2023-04-14T21:31:26.221Z,9.90
2023-04-14T21:34:30.570Z,9.80
2023-04-14T21:37:33.712Z,9.80
2023-04-14T21:40:36.659Z,9.90
2023-04-14T21:43:39.635Z,9.90
2023-04-14T21:46:42.661Z,9.90
2023-04-14T21:49:46.949Z,9.90
2023-04-14T21:52:49.871Z,9.90
2023-04-14T21:56:09.358Z,9.90
2023-04-14T21:59:13.665Z,9.80
2023-04-14T22:02:16.858Z,9.80
2023-04-14T22:05:21.296Z,9.70
2023-04-14T22:08:24.365Z,9.70
2023-04-14T22:11:28.706Z,9.80
2023-04-14T22:14:32.076Z,9.80
2023-04-14T22:17:35.122Z,9.70
2023-04-14T22:20:39.708Z,9.70
2023-04-14T22:23:43.577Z,9.80
2023-04-14T22:26:47.094Z,9.80
2023-04-14T22:29:50.122Z,9.80
2023-04-14T22:32:53.134Z,9.80
2023-04-14T22:35:57.498Z,9.80
2023-04-14T22:39:00.642Z,9.80
2023-04-14T22:42:03.820Z,9.80
2023-04-14T22:45:08.240Z,9.80
2023-04-14T22:48:11.996Z,9.80
2023-04-14T22:51:16.753Z,9.80
2023-04-14T22:54:19.676Z,9.70
2023-04-14T22:57:22.994Z,9.70
2023-04-14T23:00:26.643Z,9.70
2023-04-14T23:03:29.962Z,9.70
2023-04-14T23:06:34.448Z,9.70
2023-04-14T23:09:37.406Z,9.70
2023-04-14T23:12:40.510Z,9.60
2023-04-14T23:15:43.870Z,9.60
2023-04-14T23:18:49.473Z,9.50
2023-04-14T23:21:53.802Z,9.40
2023-04-14T23:24:57.193Z,9.40
2023-04-14T23:28:00.152Z,9.30
2023-04-14T23:31:03.303Z,9.30
2023-04-14T23:34:09.125Z,9.30
2023-04-14T23:37:13.501Z,9.30
2023-04-14T23:40:16.583Z,9.40
2023-04-14T23:43:19.580Z,9.40
2023-04-14T23:46:22.730Z,9.30
2023-04-14T23:49:34.634Z,9.40
2023-04-14T23:52:39.928Z,9.30
2023-04-14T23:55:43.713Z,9.30
2023-04-14T23:58:47.039Z,9.20
